Terminal Aerodrome Forecast
Issued by NWS Jackson, MS

Home | Current Version | Previous Version | Text Only | Print | Product List | Glossary On
Versions: 1 2 3 4 5 6 7 8 9 10 11 12
159
FTUS44 KMEG 071731
TAFTUP
TAF
KTUP 071731Z 0718/0818 24008KT P6SM SCT250
     FM080100 22006KT P6SM BKN150
     FM081000 30007KT P6SM SKC
     FM081400 33012G19KT P6SM SCT045=

USA.gov is the U.S. government's official web portal to all federal, state and local government web resources and services.